Time;durP1;ratioP1;P1;durP2;ratioP2;P2;SDS_P1;SDS_P2;PMS_P1;PMS_P2;Temp;Humidity;BMP_temperature;BMP_pressure;BME280_temperature;BME280_humidity;BME280_pressure;Samples;Min_cycle;Max_cycle;Signal;HPM_P1;HPM_P2
2023/01/07 00:01:30;;;;;;;41.90;30.35;;;10.10;99.90;;;;;;7374009;19;20624;-57
2023/01/07 00:03:59;;;;;;;46.05;32.53;;;10.10;99.90;;;;;;7373840;19;20018;-57
2023/01/07 00:06:32;;;;;;;45.00;33.08;;;10.20;99.90;;;;;;7379966;19;20015;-57
2023/01/07 00:08:59;;;;;;;47.90;32.85;;;10.20;99.90;;;;;;7376845;19;20015;-57
2023/01/07 00:11:31;;;;;;;43.42;31.20;;;10.30;99.90;;;;;;7377931;19;20452;-60
2023/01/07 00:13:59;;;;;;;47.85;33.13;;;10.30;99.90;;;;;;7370319;19;20014;-60
2023/01/07 00:16:29;;;;;;;47.95;33.13;;;10.30;99.90;;;;;;7373260;19;20045;-57
2023/01/07 00:18:57;;;;;;;49.47;32.95;;;10.30;99.90;;;;;;7374961;19;20504;-57
2023/01/07 00:21:25;;;;;;;49.33;34.10;;;10.30;99.90;;;;;;7379712;19;20528;-60
2023/01/07 00:23:56;;;;;;;46.45;32.00;;;10.30;99.90;;;;;;7369852;19;20022;-60
2023/01/07 00:26:25;;;;;;;47.72;33.97;;;10.30;99.90;;;;;;7372882;19;20568;-57
2023/01/07 00:28:52;;;;;;;50.10;33.75;;;10.30;99.90;;;;;;7372936;19;20029;-57
2023/01/07 00:31:21;;;;;;;51.53;35.78;;;10.30;99.90;;;;;;7370790;19;20018;-60
2023/01/07 00:36:27;;;;;;;48.60;33.55;;;10.40;99.90;;;;;;7379533;19;20022;-59
2023/01/07 00:38:56;;;;;;;49.70;32.60;;;10.40;99.90;;;;;;7366846;19;20035;-60
2023/01/07 00:41:23;;;;;;;54.08;34.95;;;10.50;99.90;;;;;;7375650;19;20023;-57
2023/01/07 00:43:50;;;;;;;50.15;33.35;;;10.50;99.90;;;;;;7375880;19;20534;-60
2023/01/07 00:46:16;;;;;;;50.78;33.60;;;10.50;99.90;;;;;;7370520;19;20023;-56
2023/01/07 00:48:43;;;;;;;51.95;34.38;;;10.50;99.90;;;;;;7379780;19;20817;-57
2023/01/07 00:51:12;;;;;;;52.75;34.90;;;10.60;99.90;;;;;;7379333;19;20021;-56
2023/01/07 00:53:39;;;;;;;50.67;33.85;;;10.50;99.90;;;;;;7371178;19;20011;-60
2023/01/07 00:56:06;;;;;;;53.92;33.63;;;10.50;99.90;;;;;;7372228;19;20063;-56
2023/01/07 00:58:35;;;;;;;52.67;35.30;;;10.50;99.90;;;;;;7372791;19;20286;-60
2023/01/07 01:01:02;;;;;;;56.95;35.78;;;10.60;99.90;;;;;;7368597;19;20033;-57
2023/01/07 01:03:30;;;;;;;54.45;36.83;;;10.50;99.90;;;;;;7372401;19;20670;-57
2023/01/07 01:06:05;;;;;;;57.35;36.10;;;10.60;99.90;;;;;;7375261;19;21129;-60
2023/01/07 01:08:31;;;;;;;55.80;36.55;;;10.60;99.90;;;;;;7376510;19;20022;-57
2023/01/07 01:11:05;;;;;;;51.30;33.33;;;10.60;99.90;;;;;;7371739;19;20015;-57
2023/01/07 01:13:32;;;;;;;55.05;36.60;;;10.60;99.90;;;;;;7371322;19;20018;-57
2023/01/07 01:15:59;;;;;;;63.30;39.20;;;10.60;99.90;;;;;;7377572;19;20014;-57
2023/01/07 01:18:25;;;;;;;60.58;38.85;;;10.60;99.90;;;;;;7376131;19;20022;-56
2023/01/07 01:20:54;;;;;;;59.53;38.78;;;10.70;99.90;;;;;;7377601;19;20028;-58
2023/01/07 01:23:21;;;;;;;59.30;39.15;;;10.70;99.90;;;;;;7377020;19;20405;-59
2023/01/07 01:25:47;;;;;;;55.35;38.38;;;10.70;99.90;;;;;;7366755;19;20595;-60
2023/01/07 01:28:13;;;;;;;55.40;38.30;;;10.70;99.90;;;;;;7371142;19;20078;-59
2023/01/07 01:30:40;;;;;;;53.35;38.72;;;10.70;99.90;;;;;;7367030;19;20015;-60
2023/01/07 01:33:08;;;;;;;54.30;38.28;;;10.70;99.90;;;;;;7366329;19;20353;-59
2023/01/07 01:35:38;;;;;;;55.05;38.00;;;10.70;99.90;;;;;;7368051;19;20321;-60
2023/01/07 01:38:05;;;;;;;52.58;38.20;;;10.70;99.90;;;;;;7366263;19;20023;-60
2023/01/07 01:40:32;;;;;;;50.95;39.10;;;10.70;99.90;;;;;;7366927;19;20102;-60
2023/01/07 01:43:00;;;;;;;52.90;37.65;;;10.80;99.90;;;;;;7364972;19;20018;-60
2023/01/07 01:45:28;;;;;;;49.10;37.58;;;10.80;99.90;;;;;;7368134;19;20026;-60
2023/01/07 01:48:12;;;;;;;50.28;37.55;;;10.80;99.90;;;;;;7368165;19;20011;-60
2023/01/07 01:50:45;;;;;;;46.15;35.92;;;10.70;99.90;;;;;;7365444;19;20018;-60
2023/01/07 01:53:31;;;;;;;42.42;34.20;;;10.80;99.90;;;;;;7366156;19;20026;-61
2023/01/07 01:56:00;;;;;;;41.35;34.17;;;10.80;99.90;;;;;;7370100;19;20078;-60
2023/01/07 01:58:35;;;;;;;46.03;34.83;;;10.80;99.90;;;;;;7363445;19;20023;-60
2023/01/07 02:01:02;;;;;;;46.43;35.67;;;10.80;99.90;;;;;;7367614;19;20496;-59
2023/01/07 02:03:33;;;;;;;43.50;36.13;;;10.80;99.90;;;;;;7365122;19;20086;-59
2023/01/07 02:06:00;;;;;;;42.50;33.40;;;10.80;99.90;;;;;;7365082;19;20047;-60
2023/01/07 02:08:29;;;;;;;40.92;35.05;;;10.90;99.90;;;;;;7365979;19;20757;-59
2023/01/07 02:11:15;;;;;;;41.15;34.70;;;10.80;99.90;;;;;;7367130;19;20461;-60
2023/01/07 02:13:52;;;;;;;41.10;34.40;;;10.80;99.90;;;;;;7365191;19;20030;-60
2023/01/07 02:16:43;;;;;;;39.65;34.40;;;10.80;99.90;;;;;;7366538;19;20026;-59
2023/01/07 02:20:04;;;;;;;40.85;34.08;;;10.90;99.90;;;;;;7363085;19;20048;-59
2023/01/07 02:23:01;;;;;;;39.53;33.22;;;10.90;99.90;;;;;;7362167;19;20051;-57
2023/01/07 02:25:54;;;;;;;38.90;34.67;;;10.80;99.90;;;;;;7370309;19;20335;-59
2023/01/07 02:28:45;;;;;;;38.55;33.67;;;10.80;99.90;;;;;;7371357;19;20514;-57
2023/01/07 02:31:51;;;;;;;37.65;33.00;;;10.80;99.90;;;;;;7372650;19;20022;-60
2023/01/07 02:34:55;;;;;;;38.60;33.40;;;10.90;99.90;;;;;;7365887;19;20022;-60
2023/01/07 02:37:48;;;;;;;38.00;32.75;;;10.80;99.90;;;;;;7363117;19;20021;-59
2023/01/07 02:40:22;;;;;;;38.50;33.90;;;10.80;99.90;;;;;;7364801;19;20021;-60
2023/01/07 02:43:12;;;;;;;36.83;32.83;;;10.80;99.90;;;;;;7364159;19;20023;-60
2023/01/07 02:45:48;;;;;;;35.17;31.48;;;10.80;99.90;;;;;;7364663;19;20496;-59
2023/01/07 02:48:19;;;;;;;38.92;33.45;;;10.80;99.90;;;;;;7368378;19;20014;-56
2023/01/07 02:50:45;;;;;;;36.22;32.33;;;10.80;99.90;;;;;;7375695;19;20094;-57
2023/01/07 02:53:16;;;;;;;36.15;31.38;;;10.80;99.90;;;;;;7379704;19;20385;-57
2023/01/07 02:56:23;;;;;;;33.20;29.88;;;10.80;99.90;;;;;;7368200;19;20397;-59
2023/01/07 02:59:03;;;;;;;34.70;31.05;;;10.80;99.90;;;;;;7374938;19;20018;-57
2023/01/07 03:01:51;;;;;;;34.40;30.85;;;10.80;99.90;;;;;;7381915;19;20455;-56
2023/01/07 03:04:37;;;;;;;36.60;30.67;;;10.80;99.90;;;;;;7381422;19;20011;-57
2023/01/07 03:07:36;;;;;;;35.47;30.75;;;10.80;99.90;;;;;;7378970;19;20481;-57
2023/01/07 03:10:26;;;;;;;33.75;29.60;;;10.80;99.90;;;;;;7377739;19;20347;-56
2023/01/07 03:13:02;;;;;;;32.78;29.27;;;10.80;99.90;;;;;;7378846;19;20491;-57
2023/01/07 03:15:40;;;;;;;33.55;29.15;;;10.80;99.90;;;;;;7378738;19;20371;-57
2023/01/07 03:18:34;;;;;;;33.70;28.10;;;10.80;99.90;;;;;;7378899;19;20006;-57
2023/01/07 03:21:04;;;;;;;31.23;27.98;;;10.80;99.90;;;;;;7377441;19;20026;-57
2023/01/07 03:23:37;;;;;;;31.67;28.15;;;10.80;99.90;;;;;;7379969;19;20327;-57
2023/01/07 03:26:05;;;;;;;32.33;28.92;;;10.80;99.90;;;;;;7386423;19;20023;-57
2023/01/07 03:28:39;;;;;;;31.98;28.02;;;10.80;99.90;;;;;;7389458;19;20018;-57
2023/01/07 03:31:09;;;;;;;33.10;28.42;;;10.70;99.90;;;;;;7385925;19;20018;-57
2023/01/07 03:34:10;;;;;;;30.55;27.40;;;10.70;99.90;;;;;;7386356;19;20035;-58
2023/01/07 03:36:41;;;;;;;32.40;28.30;;;10.70;99.90;;;;;;7383894;19;20034;-57
2023/01/07 03:39:10;;;;;;;29.55;25.52;;;10.70;99.90;;;;;;7383907;19;20468;-58
2023/01/07 03:44:26;;;;;;;29.73;26.52;;;10.70;99.90;;;;;;7387123;19;20017;-57
2023/01/07 03:46:53;;;;;;;29.58;26.27;;;10.70;99.90;;;;;;7383985;19;20019;-57
2023/01/07 03:49:19;;;;;;;28.25;25.27;;;10.70;99.90;;;;;;7385477;19;20010;-56
2023/01/07 03:51:48;;;;;;;29.38;25.95;;;10.70;99.90;;;;;;7384531;19;20373;-57
2023/01/07 03:54:15;;;;;;;30.25;27.02;;;10.70;99.90;;;;;;7385428;19;20055;-57
2023/01/07 03:56:42;;;;;;;27.95;24.88;;;10.70;99.90;;;;;;7384465;19;20484;-57
2023/01/07 03:59:08;;;;;;;28.17;25.27;;;10.70;99.90;;;;;;7382654;19;20561;-57
2023/01/07 04:01:35;;;;;;;28.67;24.90;;;10.70;99.90;;;;;;7385325;19;20025;-56
2023/01/07 04:04:02;;;;;;;27.73;24.77;;;10.70;99.90;;;;;;7386928;19;20529;-58
2023/01/07 04:06:29;;;;;;;27.23;24.40;;;10.70;99.90;;;;;;7386432;19;20018;-57
2023/01/07 04:08:56;;;;;;;26.30;23.42;;;10.60;99.90;;;;;;7385191;19;20014;-57
2023/01/07 04:11:23;;;;;;;31.00;24.50;;;10.60;99.90;;;;;;7386218;19;20482;-57
2023/01/07 04:13:50;;;;;;;26.40;23.75;;;10.50;99.90;;;;;;7384330;19;20018;-57
2023/01/07 04:16:17;;;;;;;28.10;24.20;;;10.50;99.90;;;;;;7384511;19;20014;-57
2023/01/07 04:18:44;;;;;;;28.52;24.17;;;10.50;99.90;;;;;;7381366;19;20023;-57
2023/01/07 04:21:10;;;;;;;26.85;23.83;;;10.50;99.90;;;;;;7384893;19;20484;-57
2023/01/07 04:23:37;;;;;;;26.30;23.48;;;10.50;99.90;;;;;;7383573;19;20024;-57
2023/01/07 04:26:03;;;;;;;27.83;24.63;;;10.60;99.90;;;;;;7383201;19;20151;-58
2023/01/07 04:28:34;;;;;;;26.15;23.48;;;10.60;99.90;;;;;;7385258;19;20026;-57
2023/01/07 04:31:01;;;;;;;26.33;22.63;;;10.60;99.90;;;;;;7384802;19;20023;-57
2023/01/07 04:33:28;;;;;;;25.55;22.90;;;10.60;99.90;;;;;;7383740;19;20026;-57
2023/01/07 04:35:56;;;;;;;24.63;22.08;;;10.70;99.90;;;;;;7381718;19;20101;-57
2023/01/07 04:38:23;;;;;;;24.85;22.30;;;10.70;99.90;;;;;;7384833;19;20398;-57
2023/01/07 04:40:49;;;;;;;25.63;22.95;;;10.70;99.90;;;;;;7384834;19;20027;-56
2023/01/07 04:43:16;;;;;;;24.42;21.17;;;10.60;99.90;;;;;;7386376;19;20022;-56
2023/01/07 04:45:42;;;;;;;22.58;20.33;;;10.60;99.90;;;;;;7387579;19;20365;-57
2023/01/07 04:48:09;;;;;;;25.52;21.85;;;10.60;99.90;;;;;;7386477;19;20010;-57
2023/01/07 04:50:36;;;;;;;24.63;20.77;;;10.60;99.90;;;;;;7385066;19;20028;-57
2023/01/07 04:53:02;;;;;;;24.08;21.40;;;10.60;99.90;;;;;;7385492;19;20022;-57
2023/01/07 04:55:29;;;;;;;25.10;20.33;;;10.60;99.90;;;;;;7382688;19;20045;-59
2023/01/07 04:58:02;;;;;;;24.27;20.45;;;10.50;99.90;;;;;;7369946;19;20025;-59
2023/01/07 05:00:30;;;;;;;22.92;20.52;;;10.60;99.90;;;;;;7367974;19;20018;-60
2023/01/07 05:02:56;;;;;;;22.33;19.73;;;10.60;99.90;;;;;;7366126;19;21260;-59
2023/01/07 05:05:23;;;;;;;25.85;20.75;;;10.50;99.90;;;;;;7372233;19;20437;-59
2023/01/07 05:07:49;;;;;;;22.05;19.42;;;10.50;99.90;;;;;;7367361;19;20023;-59
2023/01/07 05:10:18;;;;;;;22.40;20.00;;;10.50;99.90;;;;;;7372156;19;20047;-59
2023/01/07 05:12:45;;;;;;;24.15;20.17;;;10.50;99.90;;;;;;7367543;19;20349;-59
2023/01/07 05:15:13;;;;;;;24.20;19.23;;;10.60;99.90;;;;;;7372826;19;20570;-59
2023/01/07 05:17:40;;;;;;;22.55;18.20;;;10.60;99.90;;;;;;7369490;19;20018;-59
2023/01/07 05:20:07;;;;;;;20.58;16.77;;;10.50;99.90;;;;;;7385313;19;20015;-56
2023/01/07 05:22:35;;;;;;;20.65;18.02;;;10.50;99.90;;;;;;7387241;19;20010;-57
2023/01/07 05:25:03;;;;;;;19.17;17.20;;;10.50;99.90;;;;;;7384265;19;20578;-57
2023/01/07 05:27:29;;;;;;;19.95;17.75;;;10.50;99.90;;;;;;7374525;19;20724;-59
2023/01/07 05:29:57;;;;;;;19.48;17.48;;;10.50;99.90;;;;;;7360371;19;20041;-59
2023/01/07 05:32:24;;;;;;;19.98;17.10;;;10.50;99.90;;;;;;7368769;19;20014;-59
2023/01/07 05:34:51;;;;;;;20.60;15.77;;;10.50;99.90;;;;;;7361854;19;20039;-60
2023/01/07 05:37:17;;;;;;;18.27;16.48;;;10.60;99.90;;;;;;7371267;19;20085;-57
2023/01/07 05:39:44;;;;;;;18.63;16.75;;;10.50;99.90;;;;;;7371043;19;20035;-60
2023/01/07 05:42:18;;;;;;;18.40;15.95;;;10.60;99.90;;;;;;7378920;19;20026;-56
2023/01/07 05:44:45;;;;;;;18.92;17.02;;;10.60;99.90;;;;;;7370235;19;20025;-56
2023/01/07 05:47:11;;;;;;;20.38;16.38;;;10.60;99.90;;;;;;7379732;19;20014;-56
2023/01/07 05:49:38;;;;;;;20.58;16.00;;;10.60;99.90;;;;;;7374197;19;20058;-59
2023/01/07 05:52:04;;;;;;;20.33;15.98;;;10.50;99.90;;;;;;7365533;19;20646;-60
2023/01/07 05:54:30;;;;;;;16.83;15.00;;;10.60;99.90;;;;;;7362606;19;20384;-59
2023/01/07 05:56:57;;;;;;;16.08;14.20;;;10.50;99.90;;;;;;7380401;19;20667;-59
2023/01/07 05:59:24;;;;;;;20.30;15.93;;;10.50;99.90;;;;;;7364406;19;20496;-59
2023/01/07 06:01:51;;;;;;;17.95;14.95;;;10.50;99.90;;;;;;7371704;19;20524;-59
2023/01/07 06:04:17;;;;;;;16.98;15.27;;;10.50;99.90;;;;;;7368665;19;20136;-59
2023/01/07 06:06:43;;;;;;;16.73;15.02;;;10.50;99.90;;;;;;7375814;19;20018;-57
2023/01/07 06:09:10;;;;;;;17.60;14.35;;;10.50;99.90;;;;;;7371746;19;20477;-59
2023/01/07 06:11:37;;;;;;;17.08;15.27;;;10.50;99.90;;;;;;7363570;19;20074;-59
2023/01/07 06:14:03;;;;;;;15.15;13.73;;;10.60;99.90;;;;;;7362519;19;20026;-59
2023/01/07 06:16:50;;;;;;;15.02;13.45;;;10.50;99.90;;;;;;7378422;19;20027;-57
2023/01/07 06:19:36;;;;;;;14.98;13.40;;;10.50;99.90;;;;;;7368693;19;20476;-57
2023/01/07 06:22:22;;;;;;;15.63;13.50;;;10.50;99.90;;;;;;7371798;19;20482;-59
2023/01/07 06:25:11;;;;;;;15.93;12.75;;;10.50;99.90;;;;;;7361144;19;20010;-59
2023/01/07 06:27:57;;;;;;;14.55;12.77;;;10.50;99.90;;;;;;7363159;19;20303;-56
2023/01/07 06:30:23;;;;;;;14.38;12.68;;;10.50;99.90;;;;;;7372788;19;20017;-59
2023/01/07 06:32:50;;;;;;;13.20;11.90;;;10.50;99.90;;;;;;7374114;19;20074;-57
2023/01/07 06:35:16;;;;;;;15.82;12.75;;;10.50;99.90;;;;;;7362874;19;20022;-59
2023/01/07 06:37:42;;;;;;;13.55;12.18;;;10.50;99.90;;;;;;7361744;19;20595;-59
2023/01/07 06:40:09;;;;;;;13.65;12.25;;;10.50;99.90;;;;;;7362429;19;20414;-59
2023/01/07 06:42:36;;;;;;;14.43;11.15;;;10.50;99.90;;;;;;7365656;19;20015;-57
2023/01/07 06:45:02;;;;;;;13.48;11.40;;;10.50;99.90;;;;;;7379688;19;20014;-57
2023/01/07 06:47:29;;;;;;;14.93;11.65;;;10.50;99.90;;;;;;7380989;19;20022;-59
2023/01/07 06:49:59;;;;;;;13.60;11.73;;;10.50;99.90;;;;;;7360264;19;20035;-59
2023/01/07 06:52:25;;;;;;;14.20;10.95;;;10.50;99.90;;;;;;7360949;19;20451;-59
2023/01/07 06:54:52;;;;;;;11.55;10.35;;;10.50;99.90;;;;;;7375194;19;20089;-56
2023/01/07 06:57:20;;;;;;;13.75;11.40;;;10.50;99.90;;;;;;7379742;19;20475;-57
2023/01/07 06:59:48;;;;;;;12.73;10.70;;;10.50;99.90;;;;;;7388164;19;20047;-59
2023/01/07 07:02:23;;;;;;;11.25;10.15;;;10.50;99.90;;;;;;7371589;19;20871;-58
2023/01/07 07:04:49;;;;;;;12.75;10.27;;;10.50;99.90;;;;;;7373312;19;20055;-59
2023/01/07 07:07:16;;;;;;;12.43;9.93;;;10.50;99.90;;;;;;7383520;19;20346;-59
2023/01/07 07:09:44;;;;;;;12.13;9.50;;;10.50;99.90;;;;;;7391829;19;20078;-57
2023/01/07 07:12:11;;;;;;;9.82;8.82;;;10.50;99.90;;;;;;7391166;19;20019;-57
2023/01/07 07:14:38;;;;;;;11.07;9.90;;;10.50;99.90;;;;;;7393556;19;20021;-57
2023/01/07 07:17:04;;;;;;;11.13;9.93;;;10.50;99.90;;;;;;7394186;19;20038;-56
2023/01/07 07:19:31;;;;;;;10.73;8.95;;;10.50;99.90;;;;;;7380523;19;20085;-59
2023/01/07 07:21:57;;;;;;;10.07;8.35;;;10.50;99.90;;;;;;7379298;19;20414;-56
2023/01/07 07:24:24;;;;;;;11.05;9.18;;;10.50;99.90;;;;;;7380815;19;20376;-59
2023/01/07 07:26:50;;;;;;;10.55;8.50;;;10.40;99.90;;;;;;7376052;19;20047;-60
2023/01/07 07:29:16;;;;;;;9.88;8.80;;;10.40;99.90;;;;;;7388217;19;20655;-57
2023/01/07 07:31:43;;;;;;;9.77;8.75;;;10.40;99.90;;;;;;7375341;19;20446;-59
2023/01/07 07:34:09;;;;;;;12.63;8.65;;;10.40;99.90;;;;;;7383688;19;20026;-59
2023/01/07 07:36:39;;;;;;;10.85;8.40;;;10.30;99.90;;;;;;7382976;19;20588;-58
2023/01/07 07:39:06;;;;;;;10.45;8.27;;;10.40;99.90;;;;;;7391324;19;20082;-57
2023/01/07 07:41:32;;;;;;;9.50;7.70;;;10.40;99.90;;;;;;7379445;19;20113;-59
2023/01/07 07:44:04;;;;;;;;;;;10.30;99.90;;;;;;7375415;19;20044;-59
2023/01/07 07:46:30;;;;;;;11.48;8.38;;;10.30;99.90;;;;;;7387365;19;20044;-57
2023/01/07 07:48:57;;;;;;;12.35;7.63;;;10.30;99.90;;;;;;7377959;19;20027;-60
2023/01/07 07:51:24;;;;;;;8.45;7.40;;;10.30;99.90;;;;;;7385910;19;20026;-59
2023/01/07 07:53:51;;;;;;;10.77;7.63;;;10.30;99.90;;;;;;7383001;19;20010;-60
2023/01/07 07:56:17;;;;;;;10.35;6.95;;;10.20;99.90;;;;;;7374470;19;20018;-59
2023/01/07 07:58:44;;;;;;;11.27;8.13;;;10.30;99.90;;;;;;7369502;19;20014;-57
2023/01/07 08:01:12;;;;;;;10.88;7.93;;;10.20;99.90;;;;;;7390100;19;20485;-57
2023/01/07 08:03:39;;;;;;;10.90;6.78;;;10.20;99.90;;;;;;7390460;19;20698;-57
2023/01/07 08:06:05;;;;;;;7.90;6.32;;;10.20;99.90;;;;;;7392721;19;20054;-56
2023/01/07 08:08:32;;;;;;;11.85;6.65;;;10.20;99.90;;;;;;7391493;19;20019;-57
2023/01/07 08:10:58;;;;;;;10.52;7.15;;;10.30;99.90;;;;;;7384037;19;20025;-56
2023/01/07 08:13:25;;;;;;;10.90;6.82;;;10.30;99.90;;;;;;7386326;19;20018;-57
2023/01/07 08:15:52;;;;;;;8.43;6.43;;;10.30;99.90;;;;;;7379895;19;20485;-57
2023/01/07 08:18:25;;;;;;;10.65;7.25;;;10.30;99.90;;;;;;7382437;19;20105;-59
2023/01/07 08:20:51;;;;;;;10.90;7.50;;;10.40;99.90;;;;;;7376803;19;20039;-57
2023/01/07 08:23:21;;;;;;;7.50;6.55;;;10.50;99.90;;;;;;7385055;19;20077;-57
2023/01/07 08:25:48;;;;;;;8.50;6.82;;;10.50;99.90;;;;;;7372603;19;20024;-57
2023/01/07 08:28:16;;;;;;;8.52;7.13;;;10.40;99.90;;;;;;7384924;19;20026;-57
2023/01/07 08:30:43;;;;;;;10.25;7.40;;;10.40;99.90;;;;;;7386177;19;20071;-56
2023/01/07 08:33:10;;;;;;;8.35;6.93;;;10.40;99.90;;;;;;7385103;19;20930;-56
2023/01/07 08:35:36;;;;;;;7.68;6.93;;;10.40;99.90;;;;;;7373646;19;20015;-59
2023/01/07 08:38:04;;;;;;;10.10;8.02;;;10.40;99.90;;;;;;7364342;19;20014;-59
2023/01/07 08:40:31;;;;;;;9.27;7.22;;;10.40;99.90;;;;;;7363269;19;20042;-59
2023/01/07 08:42:59;;;;;;;9.70;6.95;;;10.30;99.90;;;;;;7371682;19;20022;-56
2023/01/07 08:45:26;;;;;;;8.88;7.30;;;10.30;99.90;;;;;;7373971;19;20077;-59
2023/01/07 08:47:56;;;;;;;9.95;7.68;;;10.30;99.90;;;;;;7361724;19;20039;-59
2023/01/07 08:50:24;;;;;;;8.32;7.43;;;10.20;99.90;;;;;;7362121;19;20581;-59
2023/01/07 08:52:51;;;;;;;10.00;6.70;;;10.20;99.90;;;;;;7360416;19;20025;-59
2023/01/07 08:55:19;;;;;;;8.00;7.20;;;10.20;99.90;;;;;;7360195;19;20022;-59
2023/01/07 08:57:46;;;;;;;8.55;7.28;;;10.20;99.90;;;;;;7368928;19;20464;-57
2023/01/07 09:00:15;;;;;;;8.85;6.72;;;10.20;99.90;;;;;;7386937;19;20362;-57
2023/01/07 09:02:42;;;;;;;8.35;7.22;;;10.30;99.90;;;;;;7384300;19;20460;-57
2023/01/07 09:05:14;;;;;;;9.07;7.50;;;10.40;99.90;;;;;;7385726;19;20019;-57
2023/01/07 09:07:41;;;;;;;7.70;5.78;;;10.40;99.90;;;;;;7365315;19;20022;-59
2023/01/07 09:10:09;;;;;;;7.03;5.85;;;10.50;99.90;;;;;;7361675;19;20039;-61
2023/01/07 09:12:36;;;;;;;8.35;5.97;;;10.60;99.90;;;;;;7360523;19;20029;-60
2023/01/07 09:15:05;;;;;;;6.70;5.70;;;10.70;99.90;;;;;;7379797;19;20022;-56
2023/01/07 09:17:31;;;;;;;8.57;5.68;;;10.80;99.90;;;;;;7382983;19;20027;-58
2023/01/07 09:20:02;;;;;;;24.80;20.23;;;10.80;99.90;;;;;;7371848;19;20035;-58
2023/01/07 09:22:48;;;;;;;7.63;6.32;;;10.80;99.90;;;;;;7360482;19;20408;-59
2023/01/07 09:25:35;;;;;;;7.32;6.05;;;10.70;99.90;;;;;;7370531;19;20029;-56
2023/01/07 09:28:01;;;;;;;7.38;5.30;;;10.60;99.90;;;;;;7374247;19;20437;-56
2023/01/07 09:30:27;;;;;;;7.28;5.95;;;10.60;99.90;;;;;;7374538;19;20484;-56
2023/01/07 09:32:54;;;;;;;10.20;5.95;;;10.60;99.90;;;;;;7374683;19;20018;-56
2023/01/07 09:35:21;;;;;;;6.75;5.55;;;10.60;99.90;;;;;;7376773;19;20274;-57
2023/01/07 09:37:47;;;;;;;6.32;4.85;;;10.60;99.90;;;;;;7372542;19;20023;-56
2023/01/07 09:40:23;;;;;;;6.93;5.00;;;10.60;99.90;;;;;;7379505;19;20492;-56
2023/01/07 09:43:10;;;;;;;7.95;5.32;;;10.50;99.90;;;;;;7372995;19;20474;-57
2023/01/07 09:45:43;;;;;;;7.00;4.75;;;10.50;99.90;;;;;;7362184;19;21244;-58
2023/01/07 09:48:20;;;;;;;5.88;4.65;;;10.50;99.90;;;;;;7362912;19;20041;-58
2023/01/07 09:51:02;;;;;;;9.65;5.35;;;10.50;99.90;;;;;;7360247;19;20030;-59
2023/01/07 09:53:39;;;;;;;8.85;4.50;;;10.50;99.90;;;;;;7369957;19;20026;-56
2023/01/07 09:56:22;;;;;;;6.05;5.10;;;10.60;99.90;;;;;;7366779;19;20082;-56
2023/01/07 09:58:48;;;;;;;7.95;5.15;;;10.60;99.90;;;;;;7370101;19;20035;-56
2023/01/07 10:01:52;;;;;;;7.65;5.18;;;10.70;99.90;;;;;;7375288;19;21430;-56
2023/01/07 10:05:14;;;;;;;5.60;4.30;;;10.70;99.90;;;;;;7376027;19;20022;-55
2023/01/07 10:08:04;;;;;;;8.07;4.68;;;10.80;99.90;;;;;;7372908;19;20046;-56
2023/01/07 10:10:37;;;;;;;6.20;4.60;;;10.70;99.90;;;;;;7376651;19;20041;-56
2023/01/07 10:13:30;;;;;;;4.63;4.13;;;10.80;99.90;;;;;;7373425;19;20041;-59
2023/01/07 10:16:09;;;;;;;5.95;3.75;;;10.80;99.90;;;;;;7364781;19;20011;-58
2023/01/07 10:18:53;;;;;;;5.43;4.13;;;10.80;99.90;;;;;;7359548;19;20015;-58
2023/01/07 10:21:25;;;;;;;4.82;3.90;;;10.80;99.90;;;;;;7365092;19;20097;-58
2023/01/07 10:24:12;;;;;;;;;;;10.80;99.90;;;;;;7363523;19;20019;-58
2023/01/07 10:26:46;;;;;;;4.47;3.03;;;10.90;99.90;;;;;;7358507;19;20390;-58
2023/01/07 10:29:15;;;;;;;5.28;3.30;;;10.90;99.90;;;;;;7362961;19;20049;-58
2023/01/07 10:31:43;;;;;;;4.93;3.00;;;11.00;99.90;;;;;;7358789;19;20063;-58
2023/01/07 10:34:18;;;;;;;4.47;2.85;;;11.00;99.90;;;;;;7361510;19;20153;-59
2023/01/07 10:36:59;;;;;;;4.32;2.80;;;11.00;99.90;;;;;;7358591;19;20039;-59
2023/01/07 10:39:33;;;;;;;;;;;11.00;99.90;;;;;;7357299;19;20014;-59
2023/01/07 10:42:25;;;;;;;4.03;3.05;;;11.00;99.90;;;;;;7361486;19;20280;-58
2023/01/07 10:45:10;;;;;;;4.38;2.70;;;11.00;99.90;;;;;;7360117;19;20018;-59
2023/01/07 10:47:49;;;;;;;4.18;2.80;;;11.10;99.90;;;;;;7378929;19;20486;-55
2023/01/07 10:50:44;;;;;;;4.63;3.50;;;11.10;99.90;;;;;;7381883;19;20079;-56
2023/01/07 10:53:23;;;;;;;6.88;2.90;;;11.20;99.90;;;;;;7378787;19;20603;-56
2023/01/07 10:56:20;;;;;;;3.38;2.60;;;11.20;99.90;;;;;;7363621;19;20015;-57
2023/01/07 10:58:49;;;;;;;4.13;2.55;;;11.20;99.90;;;;;;7377230;19;20378;-59
2023/01/07 11:01:28;;;;;;;4.00;2.40;;;11.20;99.90;;;;;;7361589;19;20652;-58
2023/01/07 11:03:58;;;;;;;4.00;2.60;;;11.20;99.90;;;;;;7369716;19;20014;-63
2023/01/07 11:06:43;;;;;;;4.33;2.70;;;11.20;99.90;;;;;;7364439;19;20015;-59
2023/01/07 11:09:41;;;;;;;4.68;2.88;;;11.30;99.90;;;;;;7372639;19;20031;-58
2023/01/07 11:12:39;;;;;;;3.45;2.50;;;11.20;99.90;;;;;;7362933;19;20022;-56
2023/01/07 11:15:37;;;;;;;4.63;3.20;;;11.20;99.90;;;;;;7369386;19;20376;-56
2023/01/07 11:18:30;;;;;;;4.20;2.60;;;11.20;99.90;;;;;;7359234;19;20773;-58
2023/01/07 11:20:58;;;;;;;5.00;3.03;;;11.20;99.90;;;;;;7357575;19;20021;-59
2023/01/07 11:23:35;;;;;;;3.50;2.00;;;11.20;99.90;;;;;;7365578;19;20015;-58
2023/01/07 11:26:27;;;;;;;3.80;2.42;;;11.20;99.90;;;;;;7361274;19;20023;-58
2023/01/07 11:28:57;;;;;;;5.70;2.50;;;11.20;99.90;;;;;;7364986;19;20034;-56
2023/01/07 11:31:49;;;;;;;3.03;2.30;;;11.20;99.90;;;;;;7380558;19;20015;-56
2023/01/07 11:34:30;;;;;;;4.68;3.05;;;11.20;99.90;;;;;;7382810;19;20018;-57
2023/01/07 11:37:04;;;;;;;4.72;2.47;;;11.20;99.90;;;;;;7375384;19;20023;-58
2023/01/07 11:39:34;;;;;;;4.20;2.53;;;11.20;99.90;;;;;;7373165;19;20023;-56
2023/01/07 11:45:16;;;;;;;3.72;2.50;;;11.30;99.90;;;;;;7381978;19;20039;-56
2023/01/07 11:47:50;;;;;;;3.72;2.53;;;11.30;99.90;;;;;;7390605;19;20018;-56
2023/01/07 11:50:26;;;;;;;3.90;2.65;;;11.30;99.90;;;;;;7390305;19;20486;-56
2023/01/07 11:52:58;;;;;;;2.88;2.13;;;11.40;99.90;;;;;;7388705;19;20018;-56
2023/01/07 11:55:26;;;;;;;8.48;2.80;;;11.40;99.90;;;;;;7382869;19;20018;-59
2023/01/07 11:57:54;;;;;;;5.38;2.60;;;11.40;99.90;;;;;;7377450;19;20044;-58
2023/01/07 12:00:21;;;;;;;3.35;1.98;;;11.40;99.90;;;;;;7365200;19;20018;-59
2023/01/07 12:03:03;;;;;;;4.03;1.90;;;11.40;99.90;;;;;;7366949;19;20018;-58
2023/01/07 12:05:30;;;;;;;4.45;2.15;;;11.50;99.90;;;;;;7377432;19;20072;-56
2023/01/07 12:07:58;;;;;;;3.25;2.30;;;11.40;99.90;;;;;;7376310;19;20667;-58
2023/01/07 12:10:26;;;;;;;3.88;2.63;;;11.40;99.90;;;;;;7369462;19;20026;-58
2023/01/07 12:12:53;;;;;;;5.45;2.30;;;11.40;99.90;;;;;;7319456;19;20299;-58
2023/01/07 12:15:52;;;;;;;5.35;2.50;;;11.40;99.90;;;;;;7281001;19;20014;-58
2023/01/07 12:18:21;;;;;;;3.83;2.53;;;11.50;99.90;;;;;;7387060;19;20019;-56
2023/01/07 12:21:16;;;;;;;4.13;2.10;;;11.80;99.90;;;;;;7362479;19;20039;-58
2023/01/07 12:24:11;;;;;;;3.67;2.05;;;12.20;99.90;;;;;;7387695;19;20083;-56
2023/01/07 12:26:47;;;;;;;4.97;2.17;;;12.30;99.90;;;;;;7362189;19;20494;-62
2023/01/07 12:29:22;;;;;;;2.75;2.03;;;12.30;99.90;;;;;;7367579;19;20432;-56
2023/01/07 12:32:02;;;;;;;4.25;2.13;;;12.30;99.90;;;;;;7387535;19;20014;-56
2023/01/07 12:34:53;;;;;;;3.40;1.60;;;12.30;99.90;;;;;;7385448;19;20022;-56
2023/01/07 12:37:32;;;;;;;3.27;2.10;;;12.30;99.90;;;;;;7383724;19;20014;-56
2023/01/07 12:40:31;;;;;;;3.42;1.92;;;12.50;99.90;;;;;;7364841;19;20118;-58
2023/01/07 12:43:18;;;;;;;3.72;1.50;;;13.00;99.90;;;;;;7379538;19;20447;-56
2023/01/07 12:45:59;;;;;;;4.75;1.60;;;13.20;99.90;;;;;;7382488;19;20129;-57
2023/01/07 12:48:33;;;;;;;3.95;2.08;;;13.20;99.90;;;;;;7372934;19;20019;-56
2023/01/07 12:51:09;;;;;;;3.83;1.90;;;13.20;99.90;;;;;;7385741;19;20599;-56
2023/01/07 12:53:51;;;;;;;2.20;1.50;;;13.00;99.90;;;;;;7387914;19;20023;-56
2023/01/07 12:56:31;;;;;;;2.30;1.50;;;13.00;99.90;;;;;;7382645;19;20425;-56
2023/01/07 12:59:36;;;;;;;3.30;1.88;;;12.80;99.90;;;;;;7382813;19;20382;-56
2023/01/07 13:02:19;;;;;;;2.33;1.63;;;12.60;99.90;;;;;;7359454;19;20053;-62
2023/01/07 13:05:19;;;;;;;4.23;2.20;;;12.30;99.90;;;;;;7358962;19;20018;-59
2023/01/07 13:07:54;;;;;;;4.22;1.95;;;12.20;99.90;;;;;;7362927;19;20302;-58
2023/01/07 13:10:32;;;;;;;3.45;2.30;;;12.50;99.90;;;;;;7371340;19;20029;-59
2023/01/07 13:13:05;;;;;;;3.72;1.95;;;12.50;99.90;;;;;;7364762;19;20018;-59
2023/01/07 13:15:36;;;;;;;3.03;1.80;;;12.50;99.90;;;;;;7364178;19;20587;-58